createdAt,value
2023-04-22T00:00:06.446Z,10.49
2023-04-22T00:02:37.355Z,10.51
2023-04-22T00:05:06.477Z,10.52
2023-04-22T00:07:34.936Z,10.57
2023-04-22T00:10:03.421Z,10.60
2023-04-22T00:12:33.060Z,10.64
2023-04-22T00:15:01.462Z,10.57
2023-04-22T00:17:29.875Z,10.66
2023-04-22T00:19:58.206Z,10.65
2023-04-22T00:22:26.599Z,10.66
2023-04-22T00:24:54.831Z,10.70
2023-04-22T00:27:23.101Z,10.73
2023-04-22T00:29:52.771Z,10.78
2023-04-22T00:32:22.648Z,10.88
2023-04-22T00:34:51.130Z,10.86
2023-04-22T00:37:19.597Z,10.92
2023-04-22T00:39:47.879Z,10.91
2023-04-22T00:42:17.489Z,10.89
2023-04-22T00:44:48.532Z,10.86
2023-04-22T00:47:18.751Z,10.93
2023-04-22T00:49:48.963Z,10.85
2023-04-22T00:52:17.267Z,10.72
2023-04-22T00:54:46.912Z,10.60
2023-04-22T00:57:15.124Z,10.39
2023-04-22T00:59:44.266Z,10.35
2023-04-22T01:02:13.024Z,10.32
2023-04-22T01:04:43.105Z,10.31
2023-04-22T01:07:11.360Z,10.36
2023-04-22T01:09:42.659Z,10.38
2023-04-22T01:12:10.968Z,10.34
2023-04-22T01:14:39.464Z,10.33
2023-04-22T01:17:10.222Z,10.32
2023-04-22T01:19:38.927Z,10.30
2023-04-22T01:22:09.673Z,10.23
2023-04-22T01:24:39.605Z,10.16
2023-04-22T01:27:07.935Z,10.06
2023-04-22T01:29:38.175Z,9.97
2023-04-22T01:32:07.702Z,9.94
2023-04-22T01:34:36.196Z,9.80
2023-04-22T01:37:04.626Z,9.76
2023-04-22T01:39:33.080Z,9.76
2023-04-22T01:42:04.477Z,9.97
2023-04-22T01:44:32.705Z,10.06
2023-04-22T01:47:00.931Z,10.00
2023-04-22T01:49:29.168Z,9.98
2023-04-22T01:51:58.625Z,9.92
2023-04-22T01:54:27.033Z,9.92
2023-04-22T01:56:56.185Z,9.89
2023-04-22T01:59:25.874Z,9.88
2023-04-22T02:01:54.357Z,9.87
2023-04-22T02:04:22.648Z,9.82
2023-04-22T02:06:52.458Z,9.78
2023-04-22T02:09:20.700Z,9.82
2023-04-22T02:11:49.184Z,9.79
2023-04-22T02:14:17.522Z,9.75
2023-04-22T02:16:47.193Z,9.73
2023-04-22T02:19:15.476Z,9.72
2023-04-22T02:21:43.740Z,9.69
2023-04-22T02:24:12.149Z,9.69
2023-04-22T02:26:40.409Z,9.79
2023-04-22T02:29:08.725Z,9.80
2023-04-22T02:31:37.076Z,9.81
2023-04-22T02:34:06.958Z,9.82
2023-04-22T02:36:35.799Z,9.76
2023-04-22T02:39:05.685Z,9.72
2023-04-22T02:41:34.132Z,9.71
2023-04-22T02:44:02.397Z,9.66
2023-04-22T02:46:30.929Z,9.67
2023-04-22T02:48:59.249Z,9.75
2023-04-22T02:51:29.190Z,9.73
2023-04-22T02:53:57.525Z,9.70
2023-04-22T02:56:26.744Z,9.68
2023-04-22T02:58:55.002Z,9.62
2023-04-22T03:01:23.325Z,9.61
2023-04-22T03:03:51.930Z,9.63
2023-04-22T03:06:20.886Z,9.54
2023-04-22T03:08:50.950Z,9.48
2023-04-22T03:11:19.170Z,9.54
2023-04-22T03:13:47.783Z,9.55
2023-04-22T03:16:16.039Z,9.60
2023-04-22T03:18:44.308Z,9.60
2023-04-22T03:21:12.620Z,9.66
2023-04-22T03:23:41.084Z,9.68
2023-04-22T03:26:10.743Z,9.71
2023-04-22T03:28:38.991Z,9.85
2023-04-22T03:31:07.302Z,9.89
2023-04-22T03:33:35.690Z,9.96
2023-04-22T03:36:04.179Z,10.09
2023-04-22T03:38:32.460Z,10.33
2023-04-22T03:41:00.934Z,10.48
2023-04-22T03:43:30.563Z,10.55
2023-04-22T03:46:00.782Z,10.66
2023-04-22T03:48:30.154Z,10.84
2023-04-22T03:50:58.519Z,11.14
2023-04-22T03:53:26.884Z,11.40
2023-04-22T03:55:55.139Z,11.68
2023-04-22T03:58:23.349Z,12.38
2023-04-22T04:00:53.204Z,12.80
2023-04-22T04:03:21.595Z,12.93
2023-04-22T04:05:50.104Z,13.10
2023-04-22T04:08:18.359Z,13.27
2023-04-22T04:10:46.800Z,13.19
2023-04-22T04:13:14.989Z,13.24
2023-04-22T04:15:43.697Z,12.89
2023-04-22T04:18:13.876Z,13.57
2023-04-22T04:20:42.097Z,13.52
2023-04-22T04:23:10.360Z,13.66
2023-04-22T04:25:38.898Z,13.55
2023-04-22T04:28:09.556Z,14.19
2023-04-22T04:30:37.784Z,14.05
2023-04-22T04:33:07.483Z,15.02
2023-04-22T04:35:38.863Z,14.80
2023-04-22T04:38:07.352Z,15.05
2023-04-22T04:40:36.183Z,16.01
2023-04-22T04:43:08.460Z,16.22
2023-04-22T04:45:37.819Z,16.33
2023-04-22T04:48:07.175Z,16.56
2023-04-22T04:50:36.944Z,17.13
2023-04-22T04:53:05.211Z,16.46
2023-04-22T04:55:33.657Z,16.65
2023-04-22T04:58:01.972Z,16.99
2023-04-22T05:00:30.527Z,17.21
2023-04-22T05:02:58.909Z,17.17
2023-04-22T05:05:27.316Z,17.23
2023-04-22T05:07:57.124Z,17.93
2023-04-22T05:10:25.573Z,19.10
2023-04-22T05:12:53.933Z,16.51
2023-04-22T05:15:22.195Z,15.44
2023-04-22T05:17:50.665Z,15.95
2023-04-22T05:20:18.885Z,15.36
2023-04-22T05:22:47.115Z,16.17
2023-04-22T05:25:17.154Z,15.05
2023-04-22T05:27:45.417Z,14.11
2023-04-22T05:30:14.039Z,13.79
2023-04-22T05:32:42.339Z,13.69
2023-04-22T05:35:12.136Z,13.14
2023-04-22T05:37:40.646Z,14.17
2023-04-22T05:40:09.920Z,14.80
2023-04-22T05:42:39.623Z,14.50
2023-04-22T05:45:09.282Z,14.87
2023-04-22T05:47:37.798Z,15.38
2023-04-22T05:50:07.026Z,17.12
2023-04-22T05:52:35.260Z,18.94
2023-04-22T05:55:03.547Z,19.50
2023-04-22T05:57:33.140Z,18.68
2023-04-22T06:00:05.431Z,18.21
2023-04-22T06:02:33.772Z,17.71
2023-04-22T06:05:02.287Z,18.85
2023-04-22T06:07:30.859Z,19.68
2023-04-22T06:10:04.434Z,18.40
2023-04-22T06:12:34.672Z,17.52
2023-04-22T06:15:04.838Z,17.86
2023-04-22T06:17:33.131Z,18.94
2023-04-22T06:20:01.787Z,16.78
2023-04-22T06:22:30.059Z,16.19
2023-04-22T06:24:58.292Z,16.33
2023-04-22T06:27:26.722Z,15.04
2023-04-22T06:29:54.987Z,15.41
2023-04-22T06:32:24.590Z,15.55
2023-04-22T06:34:53.012Z,14.88
2023-04-22T06:37:21.301Z,15.27
2023-04-22T06:39:49.704Z,15.08
2023-04-22T06:42:18.116Z,15.40
2023-04-22T06:44:46.405Z,16.16
2023-04-22T06:47:14.802Z,15.58
2023-04-22T06:49:45.579Z,15.22
2023-04-22T06:52:13.849Z,15.27
2023-04-22T06:54:42.101Z,15.08
2023-04-22T06:57:10.440Z,15.41
2023-04-22T06:59:39.279Z,15.04
2023-04-22T07:02:09.064Z,14.83
2023-04-22T07:04:37.580Z,14.46
2023-04-22T07:07:07.588Z,14.33
2023-04-22T07:09:36.426Z,14.25
2023-04-22T07:12:04.827Z,14.42
2023-04-22T07:14:33.646Z,14.27
2023-04-22T07:17:01.946Z,13.87
2023-04-22T07:19:30.231Z,14.00
2023-04-22T07:21:58.518Z,14.05
2023-04-22T07:24:28.169Z,13.86
2023-04-22T07:26:56.532Z,13.67
2023-04-22T07:29:24.823Z,13.49
2023-04-22T07:31:53.207Z,13.62
2023-04-22T07:34:21.676Z,13.79
2023-04-22T07:36:52.296Z,13.95
2023-04-22T07:39:20.709Z,13.79
2023-04-22T07:41:50.995Z,13.60
2023-04-22T07:44:21.821Z,13.61
2023-04-22T07:46:50.422Z,13.60
2023-04-22T07:49:19.980Z,13.62
2023-04-22T07:51:48.377Z,13.63
2023-04-22T07:54:16.649Z,13.70
2023-04-22T07:56:45.184Z,13.86
2023-04-22T07:59:14.927Z,14.35
2023-04-22T08:01:43.197Z,14.49
2023-04-22T08:04:11.880Z,14.78
2023-04-22T08:06:40.412Z,14.76
2023-04-22T08:09:10.399Z,14.63
2023-04-22T08:11:38.695Z,14.94
2023-04-22T08:14:07.060Z,14.88
2023-04-22T08:16:36.769Z,14.99
2023-04-22T08:19:05.071Z,15.28
2023-04-22T08:21:33.562Z,15.13
2023-04-22T08:24:01.841Z,15.16
2023-04-22T08:26:30.084Z,15.23
2023-04-22T08:28:58.336Z,14.97
2023-04-22T08:31:26.807Z,15.10
2023-04-22T08:33:56.740Z,15.14
2023-04-22T08:36:26.816Z,15.38
2023-04-22T08:38:55.917Z,15.57
2023-04-22T08:41:25.362Z,15.51
2023-04-22T08:43:54.413Z,15.65
2023-04-22T08:46:24.194Z,15.85
2023-04-22T08:48:52.897Z,15.28
2023-04-22T08:51:23.694Z,15.65
2023-04-22T08:53:51.963Z,15.82
2023-04-22T08:56:20.898Z,15.53
2023-04-22T08:58:49.800Z,15.78
2023-04-22T09:01:19.148Z,16.56
2023-04-22T09:03:50.209Z,16.99
2023-04-22T09:06:22.904Z,17.27
2023-04-22T09:08:51.407Z,16.99
2023-04-22T09:11:19.897Z,16.35
2023-04-22T09:13:49.052Z,16.12
2023-04-22T09:16:17.365Z,16.27
2023-04-22T09:18:46.285Z,15.83
2023-04-22T09:21:15.204Z,16.07
2023-04-22T09:23:50.694Z,15.91
2023-04-22T09:26:21.983Z,15.67
2023-04-22T09:28:51.757Z,15.62
2023-04-22T09:31:20.110Z,15.95
2023-04-22T09:33:52.915Z,16.23
2023-04-22T09:36:24.468Z,16.68
2023-04-22T09:38:59.535Z,16.54
2023-04-22T09:41:31.701Z,16.18
2023-04-22T09:44:01.577Z,16.64
2023-04-22T09:46:31.064Z,16.61
2023-04-22T09:49:00.634Z,16.73
2023-04-22T09:51:31.098Z,16.62
2023-04-22T09:54:04.351Z,16.61
2023-04-22T09:56:48.291Z,16.70
2023-04-22T09:59:21.751Z,16.86
2023-04-22T10:01:50.826Z,16.88
2023-04-22T10:04:21.747Z,16.72
2023-04-22T10:06:50.618Z,16.59
2023-04-22T10:09:22.489Z,16.60
2023-04-22T10:11:52.481Z,16.83
2023-04-22T10:14:21.585Z,16.73
2023-04-22T10:16:51.929Z,16.82
2023-04-22T10:19:22.816Z,16.70
2023-04-22T10:21:54.834Z,17.27
2023-04-22T10:24:28.170Z,17.38
2023-04-22T10:26:57.959Z,16.98
2023-04-22T10:29:27.667Z,17.14
2023-04-22T10:31:58.527Z,16.66
2023-04-22T10:34:26.896Z,16.54
2023-04-22T10:36:57.426Z,16.80
2023-04-22T10:39:29.026Z,17.03
2023-04-22T10:42:05.641Z,17.32
2023-04-22T10:44:48.800Z,17.16
2023-04-22T10:47:30.888Z,16.95
2023-04-22T10:50:20.786Z,17.23
2023-04-22T10:52:51.153Z,16.59
2023-04-22T10:55:21.467Z,16.08
2023-04-22T10:57:51.610Z,16.64
2023-04-22T11:00:53.251Z,16.64
2023-04-22T11:03:28.618Z,16.95
2023-04-22T11:06:27.909Z,16.77
2023-04-22T11:09:13.041Z,17.24
2023-04-22T11:11:42.716Z,17.56
2023-04-22T11:14:12.072Z,17.50
2023-04-22T11:16:40.322Z,17.04
2023-04-22T11:19:08.586Z,17.03
2023-04-22T11:21:37.038Z,17.16
2023-04-22T11:24:06.301Z,17.22
2023-04-22T11:26:36.334Z,17.52
2023-04-22T11:29:06.210Z,17.23
2023-04-22T11:31:34.526Z,17.02
2023-04-22T11:34:02.784Z,16.31
2023-04-22T11:36:31.617Z,16.45
2023-04-22T11:38:59.777Z,16.70
2023-04-22T11:41:30.135Z,16.46
2023-04-22T11:43:58.442Z,16.33
2023-04-22T11:46:32.021Z,16.39
2023-04-22T11:49:16.380Z,16.13
2023-04-22T11:51:55.700Z,17.03
2023-04-22T11:54:34.073Z,17.22
2023-04-22T11:57:04.576Z,16.32
2023-04-22T11:59:32.827Z,16.28
2023-04-22T12:02:07.098Z,16.64
2023-04-22T12:04:38.598Z,16.18
2023-04-22T12:07:07.224Z,15.97
2023-04-22T12:09:35.693Z,15.22
2023-04-22T12:12:05.314Z,15.08
2023-04-22T12:14:33.934Z,15.20
2023-04-22T12:17:06.606Z,14.69
2023-04-22T12:19:34.874Z,13.94
2023-04-22T12:22:03.182Z,13.98
2023-04-22T12:24:31.977Z,13.59
2023-04-22T12:27:00.201Z,13.40
2023-04-22T12:29:29.325Z,13.62
2023-04-22T12:31:57.661Z,13.53
2023-04-22T12:34:27.336Z,12.98
2023-04-22T12:36:56.420Z,12.69
2023-04-22T12:39:24.881Z,12.69
2023-04-22T12:41:53.147Z,12.78
2023-04-22T12:44:22.098Z,12.84
2023-04-22T12:46:52.366Z,12.61
2023-04-22T12:49:20.746Z,12.68
2023-04-22T12:51:50.575Z,12.81
2023-04-22T12:54:18.981Z,12.61
2023-04-22T12:56:48.102Z,12.77
2023-04-22T12:59:16.685Z,12.67
2023-04-22T13:01:44.995Z,12.61
2023-04-22T13:04:13.449Z,12.36
2023-04-22T13:06:44.074Z,12.66
2023-04-22T13:09:14.173Z,12.87
2023-04-22T13:11:42.350Z,13.23
2023-04-22T13:14:10.820Z,13.22
2023-04-22T13:16:39.276Z,13.53
2023-04-22T13:19:07.834Z,13.12
2023-04-22T13:21:36.364Z,12.89
2023-04-22T13:24:05.947Z,13.16
2023-04-22T13:26:35.904Z,12.86
2023-04-22T13:29:04.172Z,12.53
2023-04-22T13:31:32.576Z,12.72
2023-04-22T13:34:00.906Z,12.47
2023-04-22T13:36:29.333Z,12.49
2023-04-22T13:38:58.698Z,12.44
2023-04-22T13:41:27.023Z,12.47
2023-04-22T13:43:59.731Z,12.33
2023-04-22T13:46:28.341Z,12.43
2023-04-22T13:48:56.875Z,12.37
2023-04-22T13:51:25.097Z,12.47
2023-04-22T13:53:53.440Z,12.71
2023-04-22T13:56:21.746Z,12.61
2023-04-22T13:58:50.230Z,12.33
2023-04-22T14:01:19.944Z,12.49
2023-04-22T14:03:50.823Z,12.86
2023-04-22T14:06:19.102Z,13.17
2023-04-22T14:08:47.594Z,13.23
2023-04-22T14:11:15.939Z,13.22
2023-04-22T14:13:45.222Z,13.11
2023-04-22T14:16:13.767Z,12.82
2023-04-22T14:18:45.743Z,12.51
2023-04-22T14:21:14.524Z,12.30
2023-04-22T14:23:43.605Z,11.79
2023-04-22T14:26:13.768Z,11.94
2023-04-22T14:28:42.631Z,12.21
2023-04-22T14:31:11.957Z,12.58
2023-04-22T14:33:40.419Z,12.64
2023-04-22T14:36:10.308Z,12.61
2023-04-22T14:38:38.664Z,12.34
2023-04-22T14:41:07.213Z,12.30
2023-04-22T14:43:36.192Z,12.03
2023-04-22T14:46:04.587Z,12.05
2023-04-22T14:48:35.411Z,12.16
2023-04-22T14:51:03.969Z,12.00
2023-04-22T14:53:33.635Z,11.87
2023-04-22T14:56:02.372Z,11.65
2023-04-22T14:58:31.879Z,11.44
2023-04-22T15:01:00.570Z,11.66
2023-04-22T15:03:29.015Z,11.87
2023-04-22T15:05:58.105Z,11.78
2023-04-22T15:08:26.430Z,11.83
2023-04-22T15:10:56.191Z,11.81
2023-04-22T15:13:24.405Z,11.85
2023-04-22T15:15:53.154Z,11.77
2023-04-22T15:18:21.399Z,11.55
2023-04-22T15:20:49.690Z,11.49
2023-04-22T15:23:18.126Z,11.51
2023-04-22T15:25:46.431Z,11.61
2023-04-22T15:28:16.145Z,11.34
2023-04-22T15:30:44.469Z,11.23
2023-04-22T15:33:12.786Z,11.41
2023-04-22T15:35:42.818Z,11.40
2023-04-22T15:38:11.251Z,11.12
2023-04-22T15:40:39.615Z,11.03
2023-04-22T15:43:07.856Z,10.95
2023-04-22T15:45:37.569Z,10.85
2023-04-22T15:48:06.876Z,10.80
2023-04-22T15:50:35.337Z,10.76
2023-04-22T15:53:03.620Z,10.69
2023-04-22T15:55:31.809Z,10.58
2023-04-22T15:58:00.745Z,10.62
2023-04-22T16:00:29.117Z,10.58
2023-04-22T16:02:59.528Z,10.53
2023-04-22T16:05:28.761Z,10.54
2023-04-22T16:07:57.011Z,10.54
2023-04-22T16:10:26.462Z,10.53
2023-04-22T16:12:54.667Z,10.46
2023-04-22T16:15:26.201Z,10.51
2023-04-22T16:17:54.542Z,10.46
2023-04-22T16:20:24.379Z,10.31
2023-04-22T16:22:52.588Z,10.02
2023-04-22T16:25:21.259Z,9.95
2023-04-22T16:27:49.723Z,9.89
2023-04-22T16:30:18.147Z,9.80
2023-04-22T16:32:46.420Z,9.71
2023-04-22T16:35:14.667Z,9.68
2023-04-22T16:37:44.945Z,9.60
2023-04-22T16:40:13.588Z,9.57
2023-04-22T16:42:42.148Z,9.51
2023-04-22T16:45:10.837Z,9.46
2023-04-22T16:47:39.258Z,9.34
2023-04-22T16:50:10.512Z,9.35
2023-04-22T16:52:38.735Z,9.34
2023-04-22T16:55:09.592Z,9.32
2023-04-22T16:57:38.005Z,9.29
2023-04-22T17:00:07.579Z,9.21
2023-04-22T17:02:35.992Z,9.19
2023-04-22T17:05:04.581Z,9.20
2023-04-22T17:07:33.096Z,9.23
2023-04-22T17:10:01.489Z,9.20
2023-04-22T17:12:31.152Z,9.17
2023-04-22T17:14:59.372Z,9.15
2023-04-22T17:17:27.648Z,9.16
2023-04-22T17:19:55.991Z,9.14
2023-04-22T17:22:24.912Z,9.13
2023-04-22T17:24:53.357Z,9.11
2023-04-22T17:27:21.615Z,9.13
2023-04-22T17:29:51.275Z,9.04
2023-04-22T17:32:19.964Z,8.95
2023-04-22T17:34:48.311Z,8.91
2023-04-22T17:37:16.519Z,8.91
2023-04-22T17:39:44.778Z,8.92
2023-04-22T17:42:14.004Z,8.84
2023-04-22T17:44:42.832Z,8.81
2023-04-22T17:47:12.720Z,8.79
2023-04-22T17:49:41.357Z,8.72
2023-04-22T17:52:10.073Z,8.74
2023-04-22T17:54:38.340Z,8.66
2023-04-22T17:57:06.610Z,8.73
2023-04-22T17:59:36.302Z,8.65
2023-04-22T18:02:05.098Z,8.60
2023-04-22T18:04:35.032Z,8.60
2023-04-22T18:07:03.198Z,8.57
2023-04-22T18:09:31.561Z,8.54
2023-04-22T18:11:59.834Z,8.48
2023-04-22T18:14:28.155Z,8.44
2023-04-22T18:16:56.611Z,8.45
2023-04-22T18:19:24.978Z,8.44
2023-04-22T18:22:00.157Z,8.46
2023-04-22T18:24:28.948Z,8.54
2023-04-22T18:26:57.269Z,8.57
2023-04-22T18:29:26.141Z,8.63
2023-04-22T18:31:54.591Z,8.64
2023-04-22T18:34:22.949Z,8.53
2023-04-22T18:36:51.769Z,8.40
2023-04-22T18:39:21.587Z,8.33
2023-04-22T18:41:50.240Z,8.43
2023-04-22T18:44:18.861Z,8.44
2023-04-22T18:46:47.406Z,8.45
2023-04-22T18:49:16.215Z,8.52
2023-04-22T18:51:46.752Z,8.56
2023-04-22T18:54:15.004Z,8.57
2023-04-22T18:56:45.957Z,8.52
2023-04-22T18:59:14.850Z,8.48
2023-04-22T19:01:43.938Z,8.45
2023-04-22T19:04:12.538Z,8.40
2023-04-22T19:06:41.500Z,8.28
2023-04-22T19:09:09.939Z,8.13
2023-04-22T19:11:38.254Z,8.07
2023-04-22T19:14:08.046Z,8.03
2023-04-22T19:16:36.478Z,8.00
2023-04-22T19:19:04.797Z,8.07
2023-04-22T19:21:33.442Z,8.21
2023-04-22T19:24:01.713Z,8.28
2023-04-22T19:26:30.145Z,8.34
2023-04-22T19:28:58.596Z,8.38
2023-04-22T19:31:29.135Z,8.42
2023-04-22T19:33:58.042Z,8.49
2023-04-22T19:36:28.265Z,8.51
2023-04-22T19:38:56.599Z,8.51
2023-04-22T19:41:25.251Z,8.39
2023-04-22T19:43:55.484Z,8.11
2023-04-22T19:46:23.937Z,7.97
2023-04-22T19:48:54.412Z,7.95
2023-04-22T19:51:23.316Z,7.77
2023-04-22T19:53:52.236Z,7.70
2023-04-22T19:56:20.690Z,7.70
2023-04-22T19:58:49.196Z,7.88
2023-04-22T20:01:18.057Z,8.09
2023-04-22T20:03:47.112Z,8.22
2023-04-22T20:06:17.679Z,8.25
2023-04-22T20:08:47.848Z,8.18
2023-04-22T20:11:16.549Z,8.03
2023-04-22T20:13:47.921Z,8.04
2023-04-22T20:16:19.344Z,7.97
2023-04-22T20:18:48.416Z,8.08
2023-04-22T20:21:20.082Z,8.09
2023-04-22T20:23:51.417Z,8.15
2023-04-22T20:26:20.893Z,8.05
2023-04-22T20:28:52.136Z,7.92
2023-04-22T20:31:23.207Z,7.95
2023-04-22T20:33:52.744Z,7.84
2023-04-22T20:36:24.127Z,7.54
2023-04-22T20:38:55.008Z,7.52
2023-04-22T20:41:24.842Z,7.61
2023-04-22T20:43:53.259Z,7.69
2023-04-22T20:46:23.243Z,7.72
2023-04-22T20:48:51.858Z,7.70
2023-04-22T20:51:21.526Z,7.62
2023-04-22T20:53:50.704Z,7.73
2023-04-22T20:56:19.725Z,7.74
2023-04-22T20:58:48.397Z,7.79
2023-04-22T21:01:16.976Z,7.79
2023-04-22T21:03:51.584Z,7.78
2023-04-22T21:06:22.274Z,7.79
2023-04-22T21:08:50.864Z,7.79
2023-04-22T21:11:19.806Z,7.83
2023-04-22T21:13:49.327Z,7.85
2023-04-22T21:16:20.023Z,7.86
2023-04-22T21:18:50.141Z,7.81
2023-04-22T21:21:19.252Z,7.84
2023-04-22T21:23:49.527Z,7.85
2023-04-22T21:26:19.001Z,7.78
2023-04-22T21:28:47.729Z,7.78
2023-04-22T21:31:16.437Z,7.80
2023-04-22T21:33:44.863Z,7.87
2023-04-22T21:36:13.179Z,7.86
2023-04-22T21:38:41.475Z,7.82
2023-04-22T21:41:11.182Z,7.88
2023-04-22T21:43:39.665Z,7.89
2023-04-22T21:46:08.490Z,7.82
2023-04-22T21:48:36.729Z,7.76
2023-04-22T21:51:05.331Z,7.72
2023-04-22T21:53:34.106Z,7.71
2023-04-22T21:56:02.626Z,7.74
2023-04-22T21:58:32.264Z,7.84
2023-04-22T22:01:00.590Z,7.92
2023-04-22T22:03:28.951Z,7.95
2023-04-22T22:05:57.906Z,7.89
2023-04-22T22:08:26.866Z,7.92
2023-04-22T22:10:55.137Z,7.93
2023-04-22T22:13:23.693Z,7.95
2023-04-22T22:15:55.446Z,8.01
2023-04-22T22:18:23.886Z,7.96
2023-04-22T22:20:52.143Z,7.88
2023-04-22T22:23:21.625Z,7.85
2023-04-22T22:25:50.164Z,7.75
2023-04-22T22:28:18.612Z,7.71
2023-04-22T22:30:46.925Z,7.78
2023-04-22T22:33:16.774Z,7.83
2023-04-22T22:35:45.149Z,7.83
2023-04-22T22:38:13.431Z,7.85
2023-04-22T22:40:41.672Z,7.85
2023-04-22T22:43:09.980Z,7.85
2023-04-22T22:45:38.317Z,7.88
2023-04-22T22:48:07.149Z,7.95
2023-04-22T22:50:36.896Z,7.93
2023-04-22T22:53:05.101Z,7.90
2023-04-22T22:55:34.188Z,7.94
2023-04-22T22:58:02.508Z,7.91
2023-04-22T23:00:31.054Z,7.84
2023-04-22T23:02:59.483Z,7.89
2023-04-22T23:05:28.048Z,7.98
2023-04-22T23:07:57.882Z,8.06
2023-04-22T23:10:26.159Z,8.04
2023-04-22T23:12:54.407Z,7.96
2023-04-22T23:15:22.771Z,7.88
2023-04-22T23:17:51.654Z,7.95
2023-04-22T23:20:21.125Z,7.88
2023-04-22T23:22:51.615Z,7.89
2023-04-22T23:25:21.810Z,7.90
2023-04-22T23:27:50.968Z,7.92
2023-04-22T23:30:19.951Z,7.87
2023-04-22T23:32:49.697Z,7.97
2023-04-22T23:35:20.620Z,8.09
2023-04-22T23:37:52.067Z,8.04
2023-04-22T23:40:21.846Z,8.01
2023-04-22T23:42:50.232Z,7.97
2023-04-22T23:45:18.858Z,7.92
2023-04-22T23:47:47.368Z,7.89
2023-04-22T23:50:16.103Z,7.87
2023-04-22T23:52:46.775Z,7.82
2023-04-22T23:55:16.184Z,7.83
2023-04-22T23:57:46.507Z,7.88
